createdAt,value
2022-08-02T00:00:44.788Z,26.00
2022-08-02T00:03:48.067Z,30.40
2022-08-02T00:06:52.997Z,20.80
2022-08-02T00:09:56.752Z,23.00
2022-08-02T00:13:00.319Z,25.40
2022-08-02T00:16:03.888Z,23.20
2022-08-02T00:19:07.412Z,23.60
2022-08-02T00:22:15.196Z,23.00
2022-08-02T00:25:18.763Z,24.40
2022-08-02T00:28:26.843Z,23.40
2022-08-02T00:31:31.904Z,27.00
2022-08-02T00:34:38.082Z,25.20
2022-08-02T00:37:43.251Z,22.60
2022-08-02T00:40:48.843Z,26.25
2022-08-02T00:43:53.986Z,22.75
2022-08-02T00:46:57.313Z,21.25
2022-08-02T00:50:00.929Z,26.20
2022-08-02T00:53:06.451Z,21.00
2022-08-02T00:56:09.990Z,27.80
2022-08-02T00:59:13.289Z,28.50
2022-08-02T01:02:18.544Z,22.00
2022-08-02T01:05:21.904Z,25.00
2022-08-02T01:08:29.394Z,27.40
2022-08-02T01:11:36.257Z,24.00
2022-08-02T01:14:40.165Z,24.00
2022-08-02T01:17:50.746Z,25.00
2022-08-02T01:21:18.698Z,18.40
2022-08-02T01:24:52.903Z,22.20
2022-08-02T01:28:27.887Z,25.40
2022-08-02T01:31:35.842Z,26.75
2022-08-02T01:34:43.469Z,24.60
2022-08-02T01:37:52.678Z,23.75
2022-08-02T01:40:58.342Z,22.75
2022-08-02T01:44:05.479Z,25.75
2022-08-02T01:47:13.676Z,24.80
2022-08-02T01:50:22.825Z,26.00
2022-08-02T01:53:31.824Z,25.20
2022-08-02T01:56:37.095Z,23.20
2022-08-02T01:59:45.087Z,27.40
2022-08-02T02:02:50.826Z,22.50
2022-08-02T02:06:00.122Z,22.00
2022-08-02T02:09:04.352Z,23.20
2022-08-02T02:12:13.881Z,22.00
2022-08-02T02:15:19.295Z,25.00
2022-08-02T02:18:25.516Z,25.80
2022-08-02T02:21:28.906Z,27.25
2022-08-02T02:24:35.207Z,23.00
2022-08-02T02:27:47.526Z,21.00
2022-08-02T02:30:56.563Z,22.00
2022-08-02T02:34:04.496Z,25.00
2022-08-02T02:37:13.832Z,21.00
2022-08-02T02:40:18.129Z,23.00
2022-08-02T02:43:23.278Z,25.20
2022-08-02T02:46:28.659Z,21.60
2022-08-02T02:49:34.206Z,23.40
2022-08-02T02:52:38.747Z,22.00
2022-08-02T02:56:02.246Z,23.00
2022-08-02T02:59:06.802Z,21.50
2022-08-02T03:02:12.868Z,23.50
2022-08-02T03:05:17.211Z,23.00
2022-08-02T03:08:20.592Z,18.50
2022-08-02T03:11:29.870Z,19.50
2022-08-02T03:14:33.614Z,21.75
2022-08-02T03:17:43.876Z,25.80
2022-08-02T03:20:48.262Z,23.40
2022-08-02T03:23:52.377Z,23.00
2022-08-02T03:26:55.940Z,25.00
2022-08-02T03:29:59.504Z,25.60
2022-08-02T03:33:04.272Z,26.00
2022-08-02T03:36:17.521Z,23.00
2022-08-02T03:39:21.830Z,28.40
2022-08-02T03:42:26.697Z,27.00
2022-08-02T03:45:30.871Z,28.00
2022-08-02T03:48:37.775Z,26.25
2022-08-02T03:51:41.668Z,30.00
2022-08-02T03:54:45.725Z,31.40
2022-08-02T03:57:50.209Z,35.00
2022-08-02T04:00:54.435Z,27.50
2022-08-02T04:03:59.150Z,27.00
2022-08-02T04:07:02.609Z,29.50
2022-08-02T04:10:11.604Z,32.00
2022-08-02T04:13:15.300Z,33.25
2022-08-02T04:16:22.478Z,29.25
2022-08-02T04:19:40.241Z,29.00
2022-08-02T04:22:50.433Z,28.50
2022-08-02T04:25:55.011Z,33.40
2022-08-02T04:29:01.315Z,35.67
2022-08-02T04:32:06.777Z,28.75
2022-08-02T04:35:19.040Z,28.20
2022-08-02T04:38:25.812Z,27.20
2022-08-02T04:41:40.708Z,28.75
2022-08-02T04:44:47.178Z,29.75
2022-08-02T04:48:03.350Z,28.00
2022-08-02T04:51:08.802Z,30.00
2022-08-02T04:54:13.051Z,31.40
2022-08-02T04:57:33.520Z,38.25
2022-08-02T05:00:36.886Z,30.60
2022-08-02T05:03:40.164Z,32.40
2022-08-02T05:06:45.054Z,33.00
2022-08-02T05:09:48.315Z,30.80
2022-08-02T05:12:51.849Z,40.80
2022-08-02T05:15:55.159Z,24.00
2022-08-02T05:18:58.437Z,29.25
2022-08-02T05:22:03.051Z,34.75
2022-08-02T05:25:07.309Z,30.40
2022-08-02T05:28:11.816Z,28.20
2022-08-02T05:31:15.282Z,36.00
2022-08-02T05:34:18.902Z,29.75
2022-08-02T05:37:23.557Z,30.60
2022-08-02T05:40:27.464Z,35.00
2022-08-02T05:43:31.784Z,26.20
2022-08-02T05:46:35.357Z,28.00
2022-08-02T05:49:38.649Z,22.80
2022-08-02T05:52:47.800Z,34.00
2022-08-02T05:56:08.067Z,25.00
2022-08-02T05:59:19.479Z,24.00
2022-08-02T06:02:31.124Z,32.00
2022-08-02T06:05:36.884Z,25.00
2022-08-02T06:08:47.756Z,25.00
2022-08-02T06:12:11.142Z,28.20
2022-08-02T06:15:16.041Z,28.80
2022-08-02T06:18:27.769Z,25.00
2022-08-02T06:22:31.325Z,27.33
2022-08-02T06:24:57.746Z,29.00
2022-08-02T06:28:02.014Z,27.67
2022-08-02T06:31:07.159Z,24.00
2022-08-02T06:34:12.954Z,29.50
2022-08-02T06:37:25.474Z,30.25
2022-08-02T06:40:33.708Z,26.60
2022-08-02T06:43:47.260Z,28.60
2022-08-02T06:47:11.634Z,23.60
2022-08-02T06:50:14.407Z,22.00
2022-08-02T06:53:17.791Z,22.00
2022-08-02T06:56:23.043Z,28.20
2022-08-02T06:59:26.348Z,27.50
2022-08-02T07:02:30.048Z,27.00
2022-08-02T07:05:33.712Z,25.00
2022-08-02T07:08:38.581Z,24.80
2022-08-02T07:11:43.178Z,24.50
2022-08-02T07:14:46.725Z,21.50
2022-08-02T07:17:50.093Z,28.50
2022-08-02T07:20:54.002Z,27.00
2022-08-02T07:23:57.254Z,22.00
2022-08-02T07:27:11.098Z,26.75
2022-08-02T07:30:15.051Z,19.20
2022-08-02T07:33:37.086Z,20.00
2022-08-02T07:36:41.682Z,20.00
2022-08-02T07:39:47.440Z,24.50
2022-08-02T07:42:59.466Z,21.00
2022-08-02T07:46:06.129Z,21.40
2022-08-02T07:49:09.742Z,21.60
2022-08-02T07:52:13.350Z,21.75
2022-08-02T07:55:18.635Z,25.50
2022-08-02T07:58:23.716Z,26.00
2022-08-02T08:01:27.080Z,23.00
2022-08-02T08:04:30.645Z,27.00
2022-08-02T08:07:33.980Z,20.60
2022-08-02T08:10:37.170Z,20.00
2022-08-02T08:13:41.881Z,21.00
2022-08-02T08:16:45.445Z,19.00
2022-08-02T08:19:51.021Z,21.00
2022-08-02T08:22:55.597Z,19.00
2022-08-02T08:25:59.364Z,18.75
2022-08-02T08:29:06.564Z,25.00
2022-08-02T08:32:12.948Z,18.50
2022-08-02T08:35:17.915Z,20.40
2022-08-02T08:38:21.294Z,20.60
2022-08-02T08:41:26.690Z,20.00
2022-08-02T08:44:34.966Z,16.00
2022-08-02T08:47:42.836Z,18.60
2022-08-02T08:50:52.075Z,19.40
2022-08-02T08:53:57.847Z,17.00
2022-08-02T08:57:01.795Z,16.60
2022-08-02T09:00:07.876Z,15.00
2022-08-02T09:03:11.687Z,18.00
2022-08-02T09:06:14.921Z,18.80
2022-08-02T09:09:18.486Z,17.00
2022-08-02T09:12:25.167Z,19.00
2022-08-02T09:15:29.956Z,16.00
2022-08-02T09:18:33.982Z,14.50
2022-08-02T09:21:41.748Z,15.00
2022-08-02T09:24:47.787Z,14.00
2022-08-02T09:27:51.624Z,13.75
2022-08-02T09:30:58.503Z,15.00
2022-08-02T09:34:01.917Z,13.00
2022-08-02T09:37:05.195Z,12.00
2022-08-02T09:40:10.863Z,11.80
2022-08-02T09:43:14.527Z,14.25
2022-08-02T09:46:24.557Z,14.00
2022-08-02T09:49:28.110Z,14.40
2022-08-02T09:52:43.271Z,12.00
2022-08-02T09:55:57.218Z,11.00
2022-08-02T09:59:10.491Z,10.40
2022-08-02T10:02:19.804Z,12.50
2022-08-02T10:05:34.668Z,10.50
2022-08-02T10:08:48.127Z,10.00
2022-08-02T10:11:53.322Z,12.25
2022-08-02T10:14:56.634Z,11.80
2022-08-02T10:18:09.412Z,11.50
2022-08-02T10:21:30.697Z,11.00
2022-08-02T10:24:37.639Z,13.40
2022-08-02T10:28:04.379Z,13.00
2022-08-02T10:31:08.605Z,15.00
2022-08-02T10:34:18.694Z,14.00
2022-08-02T10:37:24.149Z,15.50
2022-08-02T10:40:44.484Z,16.00
2022-08-02T10:43:50.518Z,15.00
2022-08-02T10:46:55.033Z,14.60
2022-08-02T10:50:01.327Z,17.60
2022-08-02T10:53:25.530Z,13.00
2022-08-02T10:56:49.899Z,17.00
2022-08-02T10:59:56.367Z,16.00
2022-08-02T11:02:59.697Z,15.40
2022-08-02T11:06:06.228Z,13.80
2022-08-02T11:09:32.405Z,25.00
2022-08-02T11:13:00.026Z,17.25
2022-08-02T11:16:11.311Z,17.75
2022-08-02T11:19:15.138Z,14.00
2022-08-02T11:22:23.857Z,14.20
2022-08-02T11:26:00.912Z,14.20
2022-08-02T11:28:57.262Z,15.20
2022-08-02T11:32:00.722Z,17.40
2022-08-02T11:35:04.674Z,21.00
2022-08-02T11:38:19.112Z,18.00
2022-08-02T11:41:39.337Z,20.40
2022-08-02T11:44:49.273Z,19.75
2022-08-02T11:47:55.455Z,22.00
2022-08-02T11:51:07.440Z,22.80
2022-08-02T11:54:12.531Z,21.40
2022-08-02T11:57:20.791Z,22.60
2022-08-02T12:00:26.967Z,21.00
2022-08-02T12:03:38.264Z,19.00
2022-08-02T12:06:41.967Z,17.00
2022-08-02T12:09:46.832Z,19.60
2022-08-02T12:12:51.014Z,17.00
2022-08-02T12:16:15.110Z,17.80
2022-08-02T12:19:20.268Z,17.80
2022-08-02T12:22:27.559Z,20.00
2022-08-02T12:25:34.660Z,21.00
2022-08-02T12:28:40.605Z,22.00
2022-08-02T12:31:56.992Z,24.00
2022-08-02T12:35:10.618Z,22.75
2022-08-02T12:38:14.528Z,25.40
2022-08-02T12:41:31.707Z,21.00
2022-08-02T12:44:38.705Z,21.20
2022-08-02T12:47:46.979Z,23.00
2022-08-02T12:50:50.226Z,21.60
2022-08-02T12:53:59.789Z,21.50
2022-08-02T12:57:13.389Z,17.25
2022-08-02T13:00:25.635Z,20.40
2022-08-02T13:04:09.811Z,21.20
2022-08-02T13:06:53.104Z,22.00
2022-08-02T13:10:00.362Z,21.00
2022-08-02T13:13:08.305Z,22.40
2022-08-02T13:16:13.188Z,24.00
2022-08-02T13:19:16.897Z,25.60
2022-08-02T13:22:20.165Z,19.00
2022-08-02T13:25:24.348Z,19.50
2022-08-02T13:28:29.431Z,20.00
2022-08-02T13:31:36.615Z,20.00
2022-08-02T13:34:40.488Z,20.00
2022-08-02T13:37:44.743Z,17.60
2022-08-02T13:41:05.456Z,20.00
2022-08-02T13:44:11.044Z,18.50
2022-08-02T13:47:14.451Z,19.50
2022-08-02T13:50:37.709Z,20.40
2022-08-02T13:53:41.201Z,20.80
2022-08-02T13:56:44.774Z,18.00
2022-08-02T13:59:55.829Z,20.00
2022-08-02T14:03:01.151Z,19.00
2022-08-02T14:06:07.001Z,16.00
2022-08-02T14:09:15.510Z,16.40
2022-08-02T14:12:20.381Z,12.20
2022-08-02T14:15:25.425Z,11.60
2022-08-02T14:18:33.888Z,11.25
2022-08-02T14:21:46.556Z,11.40
2022-08-02T14:24:51.163Z,8.60
2022-08-02T14:27:54.712Z,11.00
2022-08-02T14:30:59.401Z,12.00
2022-08-02T14:34:03.313Z,9.60
2022-08-02T14:37:07.345Z,10.00
2022-08-02T14:40:27.822Z,10.00
2022-08-02T14:43:51.565Z,10.00
2022-08-02T14:46:56.915Z,11.00
2022-08-02T14:50:00.377Z,11.40
2022-08-02T14:53:03.777Z,9.20
2022-08-02T14:56:07.418Z,11.20
2022-08-02T14:59:10.800Z,12.00
2022-08-02T15:02:16.063Z,11.00
2022-08-02T15:05:19.743Z,11.00
2022-08-02T15:08:23.320Z,11.00
2022-08-02T15:11:26.981Z,10.80
2022-08-02T15:14:30.216Z,11.00
2022-08-02T15:17:35.077Z,13.00
2022-08-02T15:20:39.398Z,12.00
2022-08-02T15:23:45.567Z,13.00
2022-08-02T15:26:50.371Z,13.75
2022-08-02T15:30:00.170Z,13.00
2022-08-02T15:33:05.678Z,12.00
2022-08-02T15:36:09.123Z,14.40
2022-08-02T15:39:13.118Z,14.00
2022-08-02T15:42:18.522Z,13.00
2022-08-02T15:45:21.827Z,13.00
2022-08-02T15:48:26.453Z,15.80
2022-08-02T15:51:29.740Z,14.40
2022-08-02T15:54:33.033Z,15.40
2022-08-02T15:57:36.428Z,14.00
2022-08-02T16:00:39.947Z,13.40
2022-08-02T16:03:44.591Z,11.75
2022-08-02T16:06:48.424Z,14.00
2022-08-02T16:09:51.920Z,15.40
2022-08-02T16:13:15.471Z,15.25
2022-08-02T16:16:18.946Z,12.60
2022-08-02T16:19:46.656Z,14.40
2022-08-02T16:22:47.847Z,15.40
2022-08-02T16:25:51.079Z,16.00
2022-08-02T16:28:54.455Z,14.20
2022-08-02T16:31:57.712Z,15.00
2022-08-02T16:35:08.649Z,14.20
2022-08-02T16:38:12.708Z,13.00
2022-08-02T16:41:16.518Z,15.00
2022-08-02T16:44:29.643Z,14.60
2022-08-02T16:47:36.989Z,15.00
2022-08-02T16:50:48.911Z,15.50
2022-08-02T16:53:59.162Z,14.60
2022-08-02T16:57:05.094Z,15.00
2022-08-02T17:00:11.151Z,15.00
2022-08-02T17:03:14.484Z,16.00
2022-08-02T17:06:20.077Z,17.67
2022-08-02T17:10:03.734Z,16.00
2022-08-02T17:12:54.559Z,15.75
2022-08-02T17:16:16.347Z,15.00
2022-08-02T17:19:22.478Z,18.00
2022-08-02T17:22:27.364Z,18.40
2022-08-02T17:25:31.820Z,15.00
2022-08-02T17:28:41.700Z,17.50
2022-08-02T17:32:05.528Z,16.00
2022-08-02T17:35:15.652Z,15.00
2022-08-02T17:38:26.173Z,13.20
2022-08-02T17:45:07.088Z,19.80
2022-08-02T17:48:20.015Z,15.00
2022-08-02T17:52:14.776Z,18.40
2022-08-02T17:54:57.174Z,18.80
2022-08-02T17:58:01.004Z,18.00
2022-08-02T18:01:09.850Z,18.20
2022-08-02T18:04:29.095Z,18.00
2022-08-02T18:07:50.233Z,16.00
2022-08-02T18:10:58.570Z,18.40
2022-08-02T18:14:01.847Z,15.60
2022-08-02T18:17:06.609Z,15.80
2022-08-02T18:20:11.379Z,16.00
2022-08-02T18:23:14.926Z,17.50
2022-08-02T18:26:21.200Z,17.25
2022-08-02T18:29:24.981Z,21.00
2022-08-02T18:33:53.844Z,22.00
2022-08-02T18:35:57.117Z,21.00
2022-08-02T18:39:08.268Z,21.00
2022-08-02T18:42:13.712Z,19.60
2022-08-02T18:45:21.376Z,18.00
2022-08-02T18:48:29.986Z,20.00
2022-08-02T18:51:36.672Z,19.00
2022-08-02T18:54:40.402Z,20.20
2022-08-02T18:58:18.671Z,27.40
2022-08-02T19:01:21.595Z,49.00
2022-08-02T19:04:31.743Z,21.00
2022-08-02T19:07:50.734Z,20.60
2022-08-02T19:10:57.340Z,19.80
2022-08-02T19:14:02.214Z,23.00
2022-08-02T19:17:16.346Z,24.60
2022-08-02T19:20:29.145Z,23.00
2022-08-02T19:23:32.419Z,26.00
2022-08-02T19:26:35.778Z,25.00
2022-08-02T19:29:42.766Z,24.00
2022-08-02T19:32:59.499Z,26.80
2022-08-02T19:36:04.572Z,26.00
2022-08-02T19:39:08.128Z,25.40
2022-08-02T19:42:11.394Z,26.00
2022-08-02T19:45:16.236Z,28.60
2022-08-02T19:48:23.567Z,25.75
2022-08-02T19:51:54.535Z,27.00
2022-08-02T19:54:55.533Z,29.00
2022-08-02T19:58:00.600Z,26.00
2022-08-02T20:01:05.889Z,30.00
2022-08-02T20:04:13.033Z,28.20
2022-08-02T20:07:24.262Z,26.80
2022-08-02T20:10:40.826Z,24.00
2022-08-02T20:13:49.219Z,24.00
2022-08-02T20:16:54.043Z,25.60
2022-08-02T20:19:57.284Z,26.80
2022-08-02T20:23:33.574Z,24.80
2022-08-02T20:26:39.802Z,28.50
2022-08-02T20:29:51.329Z,26.60
2022-08-02T20:36:21.095Z,23.50
2022-08-02T20:39:24.443Z,26.00
2022-08-02T20:42:48.320Z,24.00
2022-08-02T20:45:51.980Z,24.25
2022-08-02T20:49:01.320Z,24.67
2022-08-02T20:52:23.357Z,28.20
2022-08-02T20:55:31.063Z,25.00
2022-08-02T20:58:35.404Z,24.80
2022-08-02T21:01:39.638Z,26.75
2022-08-02T21:05:07.660Z,25.00
2022-08-02T21:08:21.433Z,24.60
2022-08-02T21:11:33.756Z,27.20
2022-08-02T21:14:37.329Z,25.50
2022-08-02T21:17:43.597Z,25.00
2022-08-02T21:20:53.096Z,23.40
2022-08-02T21:23:56.376Z,25.60
2022-08-02T21:26:59.656Z,25.40
2022-08-02T21:30:06.603Z,25.33
2022-08-02T21:33:23.298Z,24.00
2022-08-02T21:36:31.240Z,25.00
2022-08-02T21:39:36.679Z,26.00
2022-08-02T21:42:40.286Z,27.60
2022-08-02T21:45:53.678Z,26.40
2022-08-02T21:48:59.064Z,28.00
2022-08-02T21:52:03.922Z,27.00
2022-08-02T21:55:07.905Z,27.25
2022-08-02T21:58:20.035Z,26.20
2022-08-02T22:01:24.814Z,27.20
2022-08-02T22:04:28.280Z,27.00
2022-08-02T22:07:38.596Z,24.80
2022-08-02T22:10:55.781Z,25.00
2022-08-02T22:13:59.043Z,23.00
2022-08-02T22:17:08.534Z,27.00
2022-08-02T22:20:14.445Z,28.60
2022-08-02T22:23:38.804Z,30.60
2022-08-02T22:26:47.302Z,25.20
2022-08-02T22:29:50.959Z,28.40
2022-08-02T22:33:14.806Z,28.00
2022-08-02T22:36:19.796Z,27.80
2022-08-02T22:39:32.725Z,28.00
2022-08-02T22:42:35.984Z,30.00
2022-08-02T22:45:39.589Z,30.60
2022-08-02T22:48:43.816Z,27.40
2022-08-02T22:51:47.221Z,27.00
2022-08-02T22:54:52.087Z,27.00
2022-08-02T22:57:56.611Z,28.00
2022-08-02T22:58:49.322Z,15.80
2022-08-02T22:59:08.207Z,27.20
2022-08-02T23:01:00.661Z,25.00
2022-08-02T23:04:04.063Z,28.00
2022-08-02T23:07:07.387Z,26.60
2022-08-02T23:10:12.082Z,29.75
2022-08-02T23:13:15.827Z,32.60
2022-08-02T23:16:38.696Z,31.00
2022-08-02T23:19:53.827Z,30.60
2022-08-02T23:22:57.464Z,29.00
2022-08-02T23:26:02.082Z,30.00
2022-08-02T23:29:06.257Z,29.60
2022-08-02T23:32:10.282Z,28.40
2022-08-02T23:35:16.764Z,28.00
2022-08-02T23:38:20.990Z,30.00
2022-08-02T23:41:28.532Z,25.40
2022-08-02T23:44:32.578Z,28.25
2022-08-02T23:47:36.114Z,32.00
2022-08-02T23:50:39.488Z,29.00
2022-08-02T23:53:44.719Z,28.20
2022-08-02T23:56:49.499Z,26.00
2022-08-02T23:59:52.900Z,29.40
